createdAt,value
2022-07-29T00:00:58.758Z,2.58
2022-07-29T00:03:44.674Z,2.55
2022-07-29T00:06:30.053Z,2.40
2022-07-29T00:09:15.598Z,2.78
2022-07-29T00:12:02.287Z,2.50
2022-07-29T00:14:48.080Z,2.75
2022-07-29T00:17:35.160Z,2.78
2022-07-29T00:20:20.917Z,3.10
2022-07-29T00:23:06.588Z,2.78
2022-07-29T00:26:21.366Z,3.00
2022-07-29T00:29:32.922Z,2.70
2022-07-29T00:32:12.862Z,2.42
2022-07-29T00:35:16.816Z,2.70
2022-07-29T00:42:44.061Z,2.78
2022-07-29T00:45:30.972Z,2.97
2022-07-29T00:52:38.485Z,2.88
2022-07-29T00:55:23.802Z,3.08
2022-07-29T00:58:09.763Z,2.80
2022-07-29T01:00:55.722Z,2.80
2022-07-29T01:03:41.152Z,2.70
2022-07-29T01:06:27.709Z,2.70
2022-07-29T01:09:14.316Z,3.03
2022-07-29T01:12:01.145Z,2.72
2022-07-29T01:14:48.442Z,2.80
2022-07-29T01:17:53.347Z,2.40
2022-07-29T01:21:42.342Z,2.95
2022-07-29T01:29:08.447Z,2.47
2022-07-29T01:41:09.353Z,2.85
2022-07-29T01:53:10.249Z,2.70
2022-07-29T01:55:58.223Z,3.15
2022-07-29T01:58:46.697Z,3.10
2022-07-29T02:01:34.205Z,2.90
2022-07-29T02:07:20.462Z,2.70
2022-07-29T02:10:08.132Z,2.85
2022-07-29T02:12:56.217Z,3.28
2022-07-29T02:15:43.678Z,2.85
2022-07-29T02:18:31.788Z,3.20
2022-07-29T02:21:22.396Z,2.78
2022-07-29T02:24:12.392Z,2.92
2022-07-29T02:27:01.160Z,3.00
2022-07-29T02:29:48.595Z,2.92
2022-07-29T02:33:26.123Z,2.72
2022-07-29T02:36:12.533Z,3.38
2022-07-29T02:39:01.777Z,2.90
2022-07-29T02:42:00.851Z,3.17
2022-07-29T02:44:46.402Z,3.20
2022-07-29T02:47:41.818Z,3.80
2022-07-29T02:50:34.853Z,2.67
2022-07-29T02:53:25.006Z,3.45
2022-07-29T02:56:15.583Z,3.10
2022-07-29T02:59:05.224Z,3.25
2022-07-29T03:01:53.399Z,3.75
2022-07-29T03:04:42.639Z,3.50
2022-07-29T03:07:28.823Z,3.25
2022-07-29T03:10:14.749Z,3.00
2022-07-29T03:13:02.063Z,3.20
2022-07-29T03:15:48.740Z,3.33
2022-07-29T03:18:51.108Z,3.08
2022-07-29T03:21:37.435Z,3.40
2022-07-29T03:29:06.441Z,3.10
2022-07-29T03:31:52.872Z,2.80
2022-07-29T03:34:39.097Z,2.97
2022-07-29T03:37:24.673Z,3.08
2022-07-29T03:40:12.807Z,3.10
2022-07-29T03:43:07.360Z,3.67
2022-07-29T03:46:10.661Z,3.38
2022-07-29T03:49:01.399Z,2.90
2022-07-29T03:51:47.892Z,3.05
2022-07-29T03:59:20.845Z,2.88
2022-07-29T04:06:44.148Z,3.17
2022-07-29T04:09:30.734Z,2.75
2022-07-29T04:13:24.113Z,3.03
2022-07-29T04:16:35.413Z,3.80
2022-07-29T04:19:21.812Z,2.95
2022-07-29T04:22:30.088Z,2.90
2022-07-29T04:25:16.361Z,3.08
2022-07-29T04:28:02.886Z,2.78
2022-07-29T04:30:49.100Z,2.80
2022-07-29T04:33:35.301Z,3.20
2022-07-29T04:40:40.607Z,3.60
2022-07-29T04:43:28.108Z,2.97
2022-07-29T04:46:19.860Z,3.28
2022-07-29T04:49:06.818Z,3.90
2022-07-29T04:51:53.302Z,3.03
2022-07-29T04:54:39.741Z,2.72
2022-07-29T04:57:26.088Z,3.35
2022-07-29T05:00:12.801Z,2.83
2022-07-29T05:02:59.411Z,3.03
2022-07-29T05:05:45.784Z,2.60
2022-07-29T05:08:32.154Z,3.38
2022-07-29T05:11:21.762Z,3.40
2022-07-29T05:14:08.959Z,3.15
2022-07-29T05:16:57.771Z,3.30
2022-07-29T05:19:43.867Z,3.05
2022-07-29T05:22:30.325Z,3.40
2022-07-29T05:25:16.233Z,3.15
2022-07-29T05:28:02.702Z,3.17
2022-07-29T05:30:49.390Z,3.33
2022-07-29T05:33:37.093Z,3.13
2022-07-29T05:39:09.871Z,3.80
2022-07-29T05:41:56.235Z,3.25
2022-07-29T05:44:42.623Z,2.42
2022-07-29T05:47:29.221Z,2.80
2022-07-29T05:50:15.040Z,2.50
2022-07-29T05:53:01.636Z,2.90
2022-07-29T05:56:08.743Z,3.45
2022-07-29T05:58:55.258Z,2.42
2022-07-29T06:01:42.889Z,2.60
2022-07-29T06:04:29.194Z,2.70
2022-07-29T06:07:15.409Z,2.45
2022-07-29T06:10:01.272Z,2.97
2022-07-29T06:12:47.583Z,2.60
2022-07-29T06:15:33.821Z,2.45
2022-07-29T06:18:22.069Z,2.75
2022-07-29T06:21:10.703Z,2.75
2022-07-29T06:23:57.015Z,2.85
2022-07-29T06:26:43.516Z,2.72
2022-07-29T06:29:29.863Z,2.53
2022-07-29T06:32:15.764Z,2.60
2022-07-29T06:35:24.524Z,2.88
2022-07-29T06:38:30.930Z,2.97
2022-07-29T06:41:20.436Z,3.28
2022-07-29T06:44:06.544Z,2.40
2022-07-29T06:46:52.840Z,2.72
2022-07-29T06:49:39.130Z,3.03
2022-07-29T06:52:26.573Z,2.90
2022-07-29T06:55:12.911Z,2.80
2022-07-29T06:58:12.047Z,3.40
2022-07-29T07:00:59.456Z,3.63
2022-07-29T07:04:15.114Z,2.85
2022-07-29T07:07:01.203Z,2.90
2022-07-29T07:09:47.578Z,3.05
2022-07-29T07:12:34.004Z,2.88
2022-07-29T07:15:23.080Z,3.15
2022-07-29T07:18:50.896Z,3.65
2022-07-29T07:21:36.705Z,2.50
2022-07-29T07:24:22.677Z,3.10
2022-07-29T07:27:15.646Z,3.45
2022-07-29T07:30:04.282Z,2.97
2022-07-29T07:36:57.329Z,2.92
2022-07-29T07:39:43.012Z,2.90
2022-07-29T07:42:28.689Z,3.40
2022-07-29T07:45:23.260Z,3.38
2022-07-29T07:48:11.162Z,3.38
2022-07-29T07:51:23.350Z,3.00
2022-07-29T07:54:20.835Z,3.50
2022-07-29T07:57:06.880Z,3.80
2022-07-29T07:59:56.456Z,4.20
2022-07-29T08:02:43.862Z,3.60
2022-07-29T08:08:15.464Z,3.03
2022-07-29T08:15:47.840Z,3.20
2022-07-29T08:22:54.639Z,3.50
2022-07-29T08:25:40.525Z,3.38
2022-07-29T08:28:26.261Z,3.75
2022-07-29T08:31:11.792Z,3.35
2022-07-29T08:33:57.501Z,3.90
2022-07-29T08:36:44.684Z,3.10
2022-07-29T08:39:54.777Z,3.30
2022-07-29T08:42:40.384Z,3.10
2022-07-29T08:45:26.572Z,3.70
2022-07-29T08:48:35.893Z,3.30
2022-07-29T08:51:22.840Z,3.80
2022-07-29T08:54:11.200Z,3.77
2022-07-29T08:56:57.340Z,3.72
2022-07-29T08:59:43.998Z,3.40
2022-07-29T09:02:36.408Z,3.53
2022-07-29T09:05:23.533Z,3.45
2022-07-29T09:08:09.246Z,3.55
2022-07-29T09:10:56.854Z,3.95
2022-07-29T09:13:43.529Z,4.47
2022-07-29T09:16:53.421Z,3.72
2022-07-29T09:19:45.359Z,3.92
2022-07-29T09:22:32.979Z,4.13
2022-07-29T09:25:38.806Z,3.90
2022-07-29T09:28:24.917Z,3.83
2022-07-29T09:31:11.531Z,3.75
2022-07-29T09:34:01.365Z,3.60
2022-07-29T09:36:51.134Z,4.20
2022-07-29T09:39:47.266Z,4.10
2022-07-29T09:42:35.178Z,4.22
2022-07-29T09:45:32.348Z,4.70
2022-07-29T09:48:24.280Z,3.75
2022-07-29T09:51:24.097Z,4.15
2022-07-29T09:54:28.690Z,4.15
2022-07-29T09:57:31.069Z,3.90
2022-07-29T10:00:20.049Z,4.00
2022-07-29T10:03:05.897Z,4.80
2022-07-29T10:06:14.696Z,4.40
2022-07-29T10:09:10.981Z,3.97
2022-07-29T10:12:12.192Z,4.40
2022-07-29T10:14:58.365Z,4.13
2022-07-29T10:17:45.722Z,4.15
2022-07-29T10:20:32.088Z,4.57
2022-07-29T10:23:18.503Z,4.63
2022-07-29T10:26:05.299Z,4.22
2022-07-29T10:28:51.508Z,4.68
2022-07-29T10:32:00.704Z,4.45
2022-07-29T10:35:08.562Z,4.05
2022-07-29T10:38:28.916Z,4.15
2022-07-29T10:41:44.075Z,4.85
2022-07-29T10:44:30.877Z,5.00
2022-07-29T10:47:26.768Z,4.57
2022-07-29T10:50:17.142Z,4.57
2022-07-29T10:53:04.930Z,5.18
2022-07-29T10:55:55.237Z,5.50
2022-07-29T11:01:39.169Z,4.82
2022-07-29T11:04:44.519Z,4.78
2022-07-29T11:07:45.813Z,4.50
2022-07-29T11:10:32.693Z,4.95
2022-07-29T11:13:51.513Z,4.05
2022-07-29T11:17:05.803Z,4.57
2022-07-29T11:19:52.814Z,4.30
2022-07-29T11:22:45.834Z,4.43
2022-07-29T11:25:51.013Z,4.57
2022-07-29T11:28:49.857Z,4.30
2022-07-29T11:31:45.909Z,4.40
2022-07-29T11:34:34.895Z,4.13
2022-07-29T11:37:28.290Z,3.72
2022-07-29T11:40:16.545Z,4.47
2022-07-29T11:48:31.381Z,4.10
2022-07-29T11:51:18.382Z,4.00
2022-07-29T11:54:06.188Z,4.15
2022-07-29T11:57:01.949Z,4.30
2022-07-29T11:59:48.731Z,4.10
2022-07-29T12:02:48.785Z,4.53
2022-07-29T12:05:40.266Z,4.20
2022-07-29T12:08:43.596Z,4.53
2022-07-29T12:11:29.893Z,4.30
2022-07-29T12:14:33.547Z,3.80
2022-07-29T12:17:30.901Z,4.03
2022-07-29T12:20:29.812Z,4.45
2022-07-29T12:26:07.721Z,3.40
2022-07-29T12:28:56.724Z,3.80
2022-07-29T12:31:45.350Z,4.50
2022-07-29T12:34:35.308Z,4.13
2022-07-29T12:37:21.253Z,3.72
2022-07-29T12:40:54.676Z,4.55
2022-07-29T12:43:54.021Z,4.10
2022-07-29T12:46:40.084Z,4.40
2022-07-29T12:49:26.097Z,4.20
2022-07-29T12:52:33.320Z,3.97
2022-07-29T12:55:39.440Z,4.28
2022-07-29T12:58:34.413Z,3.88
2022-07-29T13:01:21.744Z,4.18
2022-07-29T13:07:10.522Z,4.22
2022-07-29T13:10:11.433Z,3.83
2022-07-29T13:13:07.415Z,3.60
2022-07-29T13:16:08.910Z,3.80
2022-07-29T13:19:13.505Z,4.10
2022-07-29T13:21:59.941Z,4.22
2022-07-29T13:24:49.511Z,3.72
2022-07-29T13:27:37.572Z,3.72
2022-07-29T13:30:24.451Z,3.40
2022-07-29T13:40:36.882Z,3.70
2022-07-29T13:43:23.771Z,4.00
2022-07-29T13:46:09.533Z,3.78
2022-07-29T13:48:55.638Z,4.60
2022-07-29T13:52:00.695Z,4.05
2022-07-29T13:54:48.007Z,3.78
2022-07-29T13:57:33.932Z,4.13
2022-07-29T14:01:19.856Z,3.88
2022-07-29T14:04:06.026Z,3.72
2022-07-29T14:06:52.749Z,4.07
2022-07-29T14:10:30.565Z,4.18
2022-07-29T14:13:24.375Z,4.10
2022-07-29T14:16:11.388Z,4.38
2022-07-29T14:19:51.704Z,3.92
2022-07-29T14:22:42.632Z,3.90
2022-07-29T14:26:21.470Z,3.85
2022-07-29T14:29:37.038Z,4.10
2022-07-29T14:32:58.660Z,3.72
2022-07-29T14:38:32.703Z,4.00
2022-07-29T14:41:19.064Z,4.03
2022-07-29T14:44:05.464Z,3.70
2022-07-29T14:46:51.448Z,4.80
2022-07-29T14:50:41.460Z,3.88
2022-07-29T14:53:54.490Z,3.88
2022-07-29T14:57:41.782Z,4.15
2022-07-29T15:00:28.048Z,3.80
2022-07-29T15:03:14.007Z,4.13
2022-07-29T15:06:19.747Z,4.20
2022-07-29T15:09:06.080Z,3.92
2022-07-29T15:11:51.770Z,4.10
2022-07-29T15:14:37.751Z,4.30
2022-07-29T15:23:00.276Z,4.28
2022-07-29T15:25:46.489Z,4.05
2022-07-29T15:28:32.777Z,4.13
2022-07-29T15:31:19.947Z,4.50
2022-07-29T15:34:06.559Z,4.43
2022-07-29T15:37:49.629Z,3.97
2022-07-29T15:45:59.602Z,5.00
2022-07-29T15:58:14.227Z,4.65
2022-07-29T16:00:59.989Z,4.32
2022-07-29T16:04:12.809Z,4.50
2022-07-29T16:11:50.942Z,4.63
2022-07-29T16:19:23.907Z,4.90
2022-07-29T16:22:51.611Z,4.55
2022-07-29T16:25:59.100Z,4.47
2022-07-29T16:33:54.343Z,4.43
2022-07-29T16:36:39.203Z,4.32
2022-07-29T16:39:25.082Z,5.00
2022-07-29T16:42:21.263Z,4.97
2022-07-29T16:45:45.787Z,4.20
2022-07-29T16:48:32.511Z,4.65
2022-07-29T16:51:18.325Z,3.97
2022-07-29T16:54:33.864Z,4.68
2022-07-29T16:57:20.106Z,4.43
2022-07-29T17:00:07.448Z,4.97
2022-07-29T17:03:15.316Z,5.05
2022-07-29T17:06:54.491Z,4.53
2022-07-29T17:09:41.051Z,4.40
2022-07-29T17:13:30.414Z,4.47
2022-07-29T17:16:16.986Z,4.55
2022-07-29T17:19:03.871Z,4.75
2022-07-29T17:21:50.238Z,4.88
2022-07-29T17:24:36.617Z,4.70
2022-07-29T17:27:24.498Z,4.65
2022-07-29T17:30:11.239Z,4.95
2022-07-29T17:32:57.433Z,4.93
2022-07-29T17:36:02.716Z,5.38
2022-07-29T17:38:48.951Z,5.20
2022-07-29T17:41:34.961Z,4.97
2022-07-29T17:44:20.838Z,4.75
2022-07-29T17:47:15.878Z,5.40
2022-07-29T17:50:02.843Z,5.95
2022-07-29T17:52:48.957Z,6.25
2022-07-29T17:55:35.458Z,5.60
2022-07-29T17:58:21.916Z,4.00
2022-07-29T18:01:08.153Z,3.85
2022-07-29T18:03:56.178Z,4.88
2022-07-29T18:09:44.074Z,3.20
2022-07-29T18:12:30.063Z,3.40
2022-07-29T18:15:16.065Z,3.55
2022-07-29T18:18:04.501Z,3.40
2022-07-29T18:20:53.602Z,3.17
2022-07-29T18:23:39.660Z,3.22
2022-07-29T18:26:29.052Z,3.75
2022-07-29T18:29:16.990Z,3.60
2022-07-29T18:32:03.565Z,3.92
2022-07-29T18:34:50.068Z,3.65
2022-07-29T18:38:00.894Z,3.20
2022-07-29T18:40:44.605Z,3.85
2022-07-29T18:43:30.664Z,4.47
2022-07-29T18:46:16.599Z,3.67
2022-07-29T18:49:03.938Z,3.70
2022-07-29T18:54:36.488Z,3.60
2022-07-29T18:57:54.559Z,3.70
2022-07-29T19:00:28.596Z,4.13
2022-07-29T19:03:15.218Z,4.00
2022-07-29T19:06:01.359Z,4.30
2022-07-29T19:08:47.712Z,4.30
2022-07-29T19:11:34.315Z,4.60
2022-07-29T19:14:20.139Z,4.75
2022-07-29T19:17:09.072Z,4.35
2022-07-29T19:19:55.767Z,4.38
2022-07-29T19:22:42.023Z,3.70
2022-07-29T19:25:27.965Z,4.18
2022-07-29T19:28:15.950Z,3.95
2022-07-29T19:31:01.879Z,4.00
2022-07-29T19:33:48.390Z,4.00
2022-07-29T19:36:35.171Z,3.80
2022-07-29T19:39:33.326Z,3.63
2022-07-29T19:42:21.387Z,4.07
2022-07-29T19:45:07.767Z,4.00
2022-07-29T19:47:59.023Z,4.53
2022-07-29T19:50:45.335Z,7.35
2022-07-29T19:53:32.400Z,4.03
2022-07-29T19:56:18.499Z,3.78
2022-07-29T19:59:05.485Z,4.07
2022-07-29T20:01:53.970Z,3.90
2022-07-29T20:04:39.955Z,3.53
2022-07-29T20:07:25.590Z,4.05
2022-07-29T20:10:11.883Z,4.43
2022-07-29T20:12:58.247Z,4.32
2022-07-29T20:15:44.291Z,4.10
2022-07-29T20:18:30.421Z,4.38
2022-07-29T20:21:16.819Z,4.20
2022-07-29T20:24:04.874Z,4.18
2022-07-29T20:26:51.486Z,5.03
2022-07-29T20:29:38.349Z,4.22
2022-07-29T20:32:24.360Z,4.20
2022-07-29T20:35:12.007Z,4.35
2022-07-29T20:37:57.752Z,4.22
2022-07-29T20:40:43.208Z,4.68
2022-07-29T20:43:28.881Z,4.60
2022-07-29T20:46:14.331Z,5.38
2022-07-29T20:48:59.918Z,4.88
2022-07-29T20:51:46.858Z,6.20
2022-07-29T20:54:32.453Z,5.25
2022-07-29T20:57:18.201Z,5.57
2022-07-29T21:00:23.784Z,5.57
2022-07-29T21:03:09.199Z,6.22
2022-07-29T21:05:55.110Z,5.03
2022-07-29T21:08:40.751Z,4.82
2022-07-29T21:11:44.747Z,5.18
2022-07-29T21:14:36.671Z,4.53
2022-07-29T21:17:22.373Z,4.88
2022-07-29T21:20:08.914Z,4.32
2022-07-29T21:22:55.582Z,4.63
2022-07-29T21:25:40.867Z,4.83
2022-07-29T21:28:30.868Z,4.72
2022-07-29T21:31:16.833Z,4.72
2022-07-29T21:34:02.369Z,4.30
2022-07-29T21:36:58.793Z,4.38
2022-07-29T21:39:44.389Z,4.32
2022-07-29T21:42:29.707Z,4.90
2022-07-29T21:45:15.242Z,5.00
2022-07-29T21:48:00.878Z,4.57
2022-07-29T21:50:48.323Z,5.10
2022-07-29T21:53:34.170Z,5.10
2022-07-29T21:56:19.484Z,5.00
2022-07-29T21:59:09.766Z,4.95
2022-07-29T22:01:56.609Z,5.43
2022-07-29T22:04:42.331Z,5.38
2022-07-29T22:07:56.563Z,5.18
2022-07-29T22:10:33.700Z,5.53
2022-07-29T22:13:19.123Z,5.10
2022-07-29T22:16:04.911Z,4.97
2022-07-29T22:18:50.427Z,4.88
2022-07-29T22:21:35.734Z,6.13
2022-07-29T22:24:21.286Z,4.70
2022-07-29T22:27:06.962Z,4.60
2022-07-29T22:29:52.481Z,5.20
2022-07-29T22:32:37.934Z,5.05
2022-07-29T22:35:23.306Z,4.63
2022-07-29T22:38:09.176Z,5.15
2022-07-29T22:40:54.819Z,5.82
2022-07-29T22:43:46.265Z,5.80
2022-07-29T22:46:34.151Z,5.18
2022-07-29T22:49:20.036Z,4.38
2022-07-29T22:52:05.814Z,5.22
2022-07-29T22:54:51.485Z,5.45
2022-07-29T22:57:37.361Z,5.28
2022-07-29T23:00:22.968Z,5.68
2022-07-29T23:03:08.519Z,5.03
2022-07-29T23:05:54.182Z,5.65
2022-07-29T23:08:39.739Z,4.93
2022-07-29T23:11:25.181Z,5.97
2022-07-29T23:14:10.433Z,5.13
2022-07-29T23:16:55.962Z,4.78
2022-07-29T23:19:41.655Z,5.47
2022-07-29T23:22:27.053Z,5.75
2022-07-29T23:25:12.474Z,5.90
2022-07-29T23:27:57.793Z,5.80
2022-07-29T23:30:43.611Z,5.70
2022-07-29T23:33:29.385Z,5.22
2022-07-29T23:36:14.601Z,5.43
2022-07-29T23:38:59.938Z,5.03
2022-07-29T23:41:45.292Z,5.55
2022-07-29T23:44:30.773Z,5.40
2022-07-29T23:47:16.288Z,5.03
2022-07-29T23:50:01.828Z,4.85
2022-07-29T23:52:47.586Z,6.00
2022-07-29T23:55:36.710Z,5.00
2022-07-29T23:58:24.330Z,5.50
